Time;durP1;ratioP1;P1;durP2;ratioP2;P2;SDS_P1;SDS_P2;PMS_P1;PMS_P2;Temp;Humidity;BMP_temperature;BMP_pressure;BME280_temperature;BME280_humidity;BME280_pressure;Samples;Min_cycle;Max_cycle;Signal;HPM_P1;HPM_P2
2022/08/30 00:01:03;;;;;;;11.30;7.95;;;;;;;-145.69;100.00;71251.16;5073511;28;20199;-76
2022/08/30 00:03:32;;;;;;;12.13;8.30;;;;;;;-145.69;100.00;71255.16;5073747;28;20203;-76
2022/08/30 00:05:59;;;;;;;13.00;7.93;;;;;;;-145.69;100.00;71251.16;5073617;28;20198;-76
2022/08/30 00:08:27;;;;;;;13.30;7.22;;;;;;;-145.69;100.00;71255.16;5073488;28;20199;-76
2022/08/30 00:10:53;;;;;;;13.70;7.70;;;;;;;-145.69;100.00;71271.06;5073295;28;20684;-75
2022/08/30 00:13:21;;;;;;;12.88;7.80;;;;;;;-145.69;100.00;71271.06;5072635;28;20207;-76
2022/08/30 00:15:47;;;;;;;13.82;8.10;;;;;;;-145.69;100.00;71281.00;5073275;28;20199;-76
2022/08/30 00:18:16;;;;;;;23.58;9.20;;;;;;;-145.69;100.00;71302.91;5072713;28;20206;-76
2022/08/30 00:20:45;;;;;;;14.23;8.20;;;;;;;-145.69;100.00;71312.84;5072985;28;20199;-75
2022/08/30 00:23:12;;;;;;;13.57;8.10;;;;;;;-145.69;100.00;71326.78;5073311;28;20199;-76
2022/08/30 00:25:40;;;;;;;12.63;8.20;;;;;;;-145.69;100.00;71340.72;5073097;28;20199;-76
2022/08/30 00:28:08;;;;;;;16.10;8.75;;;;;;;-145.69;100.00;71350.66;5073366;28;20199;-76
2022/08/30 00:30:35;;;;;;;14.63;8.73;;;;;;;-145.69;100.00;71364.59;5072663;28;20234;-75
2022/08/30 00:33:01;;;;;;;17.13;9.55;;;;;;;-145.69;100.00;71378.50;5072849;28;20213;-75
2022/08/30 00:35:28;;;;;;;14.55;9.50;;;;;;;-145.69;100.00;71376.53;5073124;28;20213;-75
2022/08/30 00:37:55;;;;;;;23.05;8.63;;;;;;;-145.69;100.00;71378.50;5069671;28;20198;-75
2022/08/30 00:40:22;;;;;;;15.68;8.55;;;;;;;-145.69;100.00;71374.53;5072871;28;20203;-75
2022/08/30 00:42:50;;;;;;;14.63;8.82;;;;;;;-145.69;100.00;71372.53;5072696;28;20205;-75
2022/08/30 00:45:20;;;;;;;15.65;9.70;;;;;;;-145.69;100.00;71374.53;5073116;28;20569;-76
2022/08/30 00:47:46;;;;;;;15.07;9.45;;;;;;;-145.69;100.00;71392.44;5072863;28;20202;-77
2022/08/30 00:50:20;;;;;;;13.25;9.20;;;;;;;-145.69;100.00;71398.41;5072713;28;20241;-76
2022/08/30 00:52:50;;;;;;;14.95;9.07;;;;;;;-145.69;100.00;71422.28;5064790;28;20288;-76
2022/08/30 00:55:18;;;;;;;15.20;8.57;;;;;;;-145.69;100.00;71428.25;5053277;28;20203;-75
2022/08/30 00:57:47;;;;;;;18.17;9.45;;;;;;;-145.69;100.00;71444.19;5052276;28;20693;-75
2022/08/30 01:00:17;;;;;;;16.75;9.70;;;;;;;-145.69;100.00;71444.19;5052869;28;20240;-75
2022/08/30 01:02:44;;;;;;;14.27;9.98;;;;;;;-145.69;100.00;71452.16;5052690;28;20210;-75
2022/08/30 01:05:12;;;;;;;17.80;12.00;;;;;;;-145.69;100.00;71446.16;5051777;28;20822;-75
2022/08/30 01:07:39;;;;;;;15.82;10.13;;;;;;;-145.69;100.00;71446.16;5052342;28;20206;-75
2022/08/30 01:10:08;;;;;;;15.60;10.48;;;;;;;-145.69;100.00;71450.16;5056239;28;20219;-76
2022/08/30 01:12:35;;;;;;;23.25;10.40;;;;;;;-145.69;100.00;71442.19;5072510;28;20202;-76
2022/08/30 01:15:03;;;;;;;18.27;10.88;;;;;;;-145.69;100.00;71426.28;5072393;28;20289;-76
2022/08/30 01:17:31;;;;;;;19.63;10.93;;;;;;;-145.69;100.00;71426.28;5072514;28;20199;-75
2022/08/30 01:20:03;;;;;;;14.98;9.98;;;;;;;-145.69;100.00;71438.22;5072464;28;20688;-76
2022/08/30 01:22:37;;;;;;;14.25;9.40;;;;;;;-145.69;100.00;71446.16;5072834;28;20260;-77
2022/08/30 01:25:07;;;;;;;15.48;9.93;;;;;;;-145.69;100.00;71462.09;5072488;28;20290;-75
2022/08/30 01:27:36;;;;;;;17.15;9.40;;;;;;;-145.69;100.00;71468.06;5072664;28;20198;-76
2022/08/30 01:30:04;;;;;;;15.88;10.07;;;;;;;-145.69;100.00;71456.13;5076286;28;20230;-76
2022/08/30 01:32:47;;;;;;;22.42;11.25;;;;;;;-145.69;100.00;71442.19;5072303;28;20195;-76
2022/08/30 01:35:16;;;;;;;18.80;10.77;;;;;;;-145.69;100.00;71458.09;5075960;28;20209;-76
2022/08/30 01:37:44;;;;;;;19.38;11.57;;;;;;;-145.69;100.00;71446.16;5076545;28;20203;-75
2022/08/30 01:40:13;;;;;;;19.48;10.65;;;;;;;-145.69;100.00;71448.16;5075943;28;20222;-75
2022/08/30 01:42:40;;;;;;;15.93;10.93;;;;;;;-145.69;100.00;71452.16;5076151;28;20218;-75
2022/08/30 01:45:09;;;;;;;17.27;11.25;;;;;;;-145.69;100.00;71446.16;5075945;28;20264;-75
2022/08/30 01:47:36;;;;;;;16.95;11.27;;;;;;;-145.69;100.00;71446.16;5075946;28;20205;-75
2022/08/30 01:50:04;;;;;;;20.70;11.63;;;;;;;-145.69;100.00;71448.16;5075761;28;20249;-75
2022/08/30 01:52:30;;;;;;;15.07;10.95;;;;;;;-145.69;100.00;71448.16;5075933;28;20206;-75
2022/08/30 01:54:57;;;;;;;17.48;10.73;;;;;;;-145.69;100.00;71456.13;5075992;28;20649;-76
2022/08/30 01:57:25;;;;;;;18.58;11.35;;;;;;;-145.69;100.00;71450.16;5075628;28;20199;-76
2022/08/30 01:59:52;;;;;;;19.40;11.10;;;;;;;-145.69;100.00;71446.16;5075742;28;20297;-76
2022/08/30 02:02:23;;;;;;;17.13;11.32;;;;;;;-145.69;100.00;71446.16;5075553;28;20245;-75
2022/08/30 02:04:50;;;;;;;18.52;11.00;;;;;;;-145.69;100.00;71446.16;5075623;28;20530;-76
2022/08/30 02:07:17;;;;;;;16.13;10.30;;;;;;;-145.69;100.00;71468.06;5075729;28;20203;-75
2022/08/30 02:09:44;;;;;;;17.33;10.00;;;;;;;-145.69;100.00;71476.03;5075634;28;20222;-76
2022/08/30 02:12:10;;;;;;;18.20;10.65;;;;;;;-145.69;100.00;71485.97;5075544;28;20203;-75
2022/08/30 02:14:38;;;;;;;17.23;11.52;;;;;;;-145.69;100.00;71489.94;5074538;28;20435;-76
2022/08/30 02:17:07;;;;;;;15.73;10.20;;;;;;;-145.69;100.00;71493.94;5075597;28;20199;-76
2022/08/30 02:19:33;;;;;;;16.60;9.73;;;;;;;-145.69;100.00;71493.94;5075083;28;20199;-75
2022/08/30 02:22:00;;;;;;;14.13;9.85;;;;;;;-145.69;100.00;71499.91;5075667;28;20252;-75
2022/08/30 02:24:27;;;;;;;15.52;9.82;;;;;;;-145.69;100.00;71505.88;5075525;28;20249;-75
2022/08/30 02:26:54;;;;;;;16.48;11.32;;;;;;;-145.69;100.00;71501.88;5075434;28;20210;-76
2022/08/30 02:29:21;;;;;;;15.55;10.07;;;;;;;-145.69;100.00;71495.91;5075263;28;20233;-76
2022/08/30 02:31:50;;;;;;;15.20;9.95;;;;;;;-145.69;100.00;71503.88;5074833;28;20206;-74
2022/08/30 02:34:16;;;;;;;16.70;10.85;;;;;;;-145.69;100.00;71487.97;5075294;28;20251;-76
2022/08/30 02:36:44;;;;;;;16.67;10.35;;;;;;;-145.69;100.00;71493.94;5075147;28;20207;-75
2022/08/30 02:39:12;;;;;;;21.83;12.40;;;;;;;-145.69;100.00;71485.97;5074693;28;20202;-75
2022/08/30 02:41:39;;;;;;;18.63;10.68;;;;;;;-145.69;100.00;71493.94;5072988;28;20218;-76
2022/08/30 02:44:07;;;;;;;17.75;11.05;;;;;;;-145.69;100.00;71497.91;5055405;28;20196;-75
2022/08/30 02:46:34;;;;;;;17.80;10.30;;;;;;;-145.69;100.00;71505.88;5054914;28;20254;-75
2022/08/30 02:49:02;;;;;;;20.10;11.88;;;;;;;-145.69;100.00;71509.84;5054603;28;20467;-77
2022/08/30 02:51:28;;;;;;;21.23;12.02;;;;;;;-145.69;100.00;71489.94;5054586;28;20231;-75
2022/08/30 02:53:55;;;;;;;21.00;11.52;;;;;;;-145.69;100.00;71476.03;5054997;28;20203;-75
2022/08/30 02:56:21;;;;;;;22.60;12.18;;;;;;;-145.69;100.00;71466.06;5054697;28;20218;-77
2022/08/30 02:58:48;;;;;;;18.30;11.20;;;;;;;-145.69;100.00;71476.03;5066984;28;20202;-76
2022/08/30 03:01:17;;;;;;;17.77;10.32;;;;;;;-145.69;100.00;71478.00;5074938;28;20207;-77
2022/08/30 03:03:46;;;;;;;18.02;11.20;;;;;;;-145.69;100.00;71482.00;5074501;28;20739;-76
2022/08/30 03:06:14;;;;;;;20.70;11.60;;;;;;;-145.69;100.00;71474.03;5074660;28;20653;-76
2022/08/30 03:08:41;;;;;;;16.38;10.60;;;;;;;-145.69;100.00;71482.00;5074222;28;20195;-76
2022/08/30 03:11:08;;;;;;;20.00;12.48;;;;;;;-145.69;100.00;71476.03;5074568;28;20222;-75
2022/08/30 03:13:35;;;;;;;19.63;11.73;;;;;;;-145.69;100.00;71472.03;5074075;28;20710;-76
2022/08/30 03:16:01;;;;;;;19.27;10.80;;;;;;;-145.69;100.00;71470.06;5074733;28;20205;-76
2022/08/30 03:18:28;;;;;;;18.08;12.10;;;;;;;-145.69;100.00;71444.19;5074415;28;20207;-75
2022/08/30 03:20:54;;;;;;;20.95;12.73;;;;;;;-145.69;100.00;71414.34;5074377;28;20195;-75
2022/08/30 03:23:23;;;;;;;23.15;12.65;;;;;;;-145.69;100.00;71398.41;5073826;28;20595;-77
2022/08/30 03:25:49;;;;;;;21.00;12.57;;;;;;;-145.69;100.00;71386.47;5073505;28;20641;-77
2022/08/30 03:28:15;;;;;;;22.88;12.57;;;;;;;-145.69;100.00;71390.47;5074372;28;20202;-77
2022/08/30 03:30:42;;;;;;;20.40;12.13;;;;;;;-145.69;100.00;71398.41;5074184;28;20222;-76
2022/08/30 03:33:08;;;;;;;16.65;11.38;;;;;;;-145.69;100.00;71420.31;5073809;28;20199;-76
2022/08/30 03:35:35;;;;;;;15.73;10.05;;;;;;;-145.69;100.00;71434.22;5074167;28;20257;-76
2022/08/30 03:38:01;;;;;;;18.35;10.57;;;;;;;-145.69;100.00;71450.16;5074001;28;20203;-75
2022/08/30 03:40:29;;;;;;;21.73;12.38;;;;;;;-145.69;100.00;71444.19;5073775;28;20202;-75
2022/08/30 03:42:56;;;;;;;18.90;11.43;;;;;;;-145.69;100.00;71450.16;5073816;28;20210;-76
2022/08/30 03:45:22;;;;;;;19.15;11.70;;;;;;;-145.69;100.00;71450.16;5073982;28;20206;-76
2022/08/30 03:47:50;;;;;;;19.50;12.97;;;;;;;-145.69;100.00;71464.09;5073459;28;20438;-76
2022/08/30 03:50:16;;;;;;;19.08;11.35;;;;;;;-145.69;100.00;71476.03;5073420;28;20242;-76
2022/08/30 03:52:44;;;;;;;16.35;10.93;;;;;;;-145.69;100.00;71482.00;5072574;28;20203;-76
2022/08/30 03:55:11;;;;;;;18.27;11.93;;;;;;;-145.69;100.00;71489.94;5073706;28;20194;-76
2022/08/30 03:57:40;;;;;;;21.60;13.75;;;;;;;-145.69;100.00;71489.94;5073093;28;20438;-76
2022/08/30 04:00:08;;;;;;;18.70;11.63;;;;;;;-145.69;100.00;71491.94;5073799;28;20660;-76
2022/08/30 04:02:34;;;;;;;18.25;11.38;;;;;;;-145.69;100.00;71493.94;5073570;28;20203;-76
2022/08/30 04:05:01;;;;;;;21.13;12.18;;;;;;;-145.69;100.00;71474.03;5073474;28;20539;-76
2022/08/30 04:07:27;;;;;;;21.95;12.32;;;;;;;-145.69;100.00;71472.03;5073427;28;20558;-76
2022/08/30 04:09:54;;;;;;;19.27;11.60;;;;;;;-145.69;100.00;71491.94;5073233;28;20222;-76
2022/08/30 04:12:20;;;;;;;18.08;11.65;;;;;;;-145.69;100.00;71495.91;5073230;28;20220;-76
2022/08/30 04:14:48;;;;;;;21.65;11.50;;;;;;;-145.69;100.00;71493.94;5073482;28;20255;-76
2022/08/30 04:17:14;;;;;;;24.35;11.60;;;;;;;-145.69;100.00;71505.88;5073224;28;20677;-76
2022/08/30 04:19:41;;;;;;;22.10;13.38;;;;;;;-145.69;100.00;71497.91;5073038;28;20707;-75
2022/08/30 04:22:07;;;;;;;24.27;12.38;;;;;;;-145.69;100.00;71487.97;5073354;28;20202;-75
2022/08/30 04:24:34;;;;;;;22.50;12.38;;;;;;;-145.69;100.00;71501.88;5073450;28;20629;-75
2022/08/30 04:27:00;;;;;;;15.53;10.50;;;;;;;-145.69;100.00;71517.81;5073328;28;20203;-75
2022/08/30 04:29:27;;;;;;;24.48;12.93;;;;;;;-145.69;100.00;71509.84;5072904;28;20221;-75
2022/08/30 04:31:55;;;;;;;26.40;14.88;;;;;;;-145.69;100.00;71474.03;5072804;28;20234;-75
2022/08/30 04:34:21;;;;;;;26.90;15.10;;;;;;;-145.69;100.00;71456.13;5070929;28;20614;-75
2022/08/30 04:36:48;;;;;;;27.23;14.95;;;;;;;-145.69;100.00;71454.13;5053108;28;20553;-76
2022/08/30 04:39:15;;;;;;;25.25;13.93;;;;;;;-145.69;100.00;71462.09;5053066;28;20206;-75
2022/08/30 04:41:41;;;;;;;23.75;13.00;;;;;;;-145.69;100.00;71485.97;5053080;28;20204;-75
2022/08/30 04:44:07;;;;;;;19.70;13.05;;;;;;;-145.69;100.00;71489.94;5052939;28;20249;-76
2022/08/30 04:46:35;;;;;;;20.73;11.93;;;;;;;-145.69;100.00;71505.88;5066993;28;20657;-75
2022/08/30 04:49:03;;;;;;;28.25;13.63;;;;;;;-145.69;100.00;71505.88;5072706;28;20234;-75
2022/08/30 04:51:30;;;;;;;24.85;13.95;;;;;;;-145.69;100.00;71509.84;5072112;28;20226;-75
2022/08/30 04:53:57;;;;;;;23.95;13.35;;;;;;;-145.69;100.00;71509.84;5072774;28;20199;-76
2022/08/30 04:56:24;;;;;;;29.52;13.98;;;;;;;-145.69;100.00;71509.84;5072922;28;20228;-76
2022/08/30 04:58:53;;;;;;;23.50;13.15;;;;;;;-145.69;100.00;71507.84;5072808;28;20198;-76
2022/08/30 05:01:23;;;;;;;23.92;14.23;;;;;;;-145.69;100.00;71517.81;5072345;28;20247;-76
2022/08/30 05:03:51;;;;;;;24.35;13.90;;;;;;;-145.69;100.00;71513.81;5077059;28;20199;-76
2022/08/30 05:06:19;;;;;;;26.52;14.48;;;;;;;-145.69;100.00;71509.84;5079582;28;20199;-76
2022/08/30 05:08:46;;;;;;;23.42;14.82;;;;;;;-145.69;100.00;71493.94;5079513;28;20203;-76
2022/08/30 05:11:15;;;;;;;27.15;15.48;;;;;;;-145.69;100.00;71489.94;5078901;28;20229;-76
2022/08/30 05:13:42;;;;;;;25.60;14.32;;;;;;;-145.69;100.00;71487.97;5059113;28;20199;-76
2022/08/30 05:16:09;;;;;;;29.35;15.52;;;;;;;-145.69;100.00;71489.94;5059321;28;20195;-76
2022/08/30 05:18:36;;;;;;;26.92;14.20;;;;;;;-145.69;100.00;71485.97;5059334;28;20206;-76
2022/08/30 05:21:04;;;;;;;25.27;13.98;;;;;;;-145.69;100.00;71487.97;5059360;28;20294;-75
2022/08/30 05:23:32;;;;;;;29.77;14.65;;;;;;;-145.69;100.00;71478.00;5059140;28;20210;-76
2022/08/30 05:25:58;;;;;;;25.48;13.38;;;;;;;-145.69;100.00;71474.03;5059285;28;20685;-76
2022/08/30 05:28:25;;;;;;;24.58;14.23;;;;;;;-145.69;100.00;71466.06;5058957;28;20203;-76
2022/08/30 05:30:51;;;;;;;22.20;13.52;;;;;;;-145.69;100.00;71446.16;5059337;28;20223;-75
2022/08/30 05:33:18;;;;;;;25.10;14.98;;;;;;;-145.69;100.00;71430.25;5058881;28;20203;-76
2022/08/30 05:35:44;;;;;;;24.92;14.90;;;;;;;-145.69;100.00;71418.31;5059307;28;20277;-76
2022/08/30 05:38:11;;;;;;;27.40;14.77;;;;;;;-145.69;100.00;71418.31;5063672;28;20190;-76
2022/08/30 05:40:41;;;;;;;20.83;13.23;;;;;;;-145.69;100.00;71406.38;5079035;28;20209;-76
2022/08/30 05:43:08;;;;;;;21.65;13.30;;;;;;;-145.69;100.00;71402.41;5078830;28;20226;-75
2022/08/30 05:45:35;;;;;;;24.77;13.82;;;;;;;-145.69;100.00;71394.44;5079167;28;20657;-76
2022/08/30 05:48:01;;;;;;;28.33;14.98;;;;;;;-145.69;100.00;71368.56;5079125;28;20195;-76
2022/08/30 05:50:28;;;;;;;23.88;13.55;;;;;;;-145.69;100.00;71354.63;5078782;28;20226;-76
2022/08/30 05:52:54;;;;;;;21.80;13.30;;;;;;;-145.69;100.00;71344.69;5078783;28;20209;-76
2022/08/30 05:55:21;;;;;;;23.80;13.85;;;;;;;-145.69;100.00;71332.75;5078845;28;20546;-76
2022/08/30 05:57:49;;;;;;;20.45;13.48;;;;;;;-145.69;100.00;71320.81;5078869;28;20202;-75
2022/08/30 06:00:17;;;;;;;24.23;13.25;;;;;;;-145.69;100.00;71316.84;5078854;28;20584;-75
2022/08/30 06:02:44;;;;;;;20.80;12.65;;;;;;;-145.69;100.00;71304.91;5078972;28;20213;-76
2022/08/30 06:05:12;;;;;;;23.75;12.15;;;;;;;-145.69;100.00;71294.94;5078845;28;20226;-75
2022/08/30 06:07:39;;;;;;;19.30;12.25;;;;;;;-145.69;100.00;71285.00;5078797;28;20657;-76
2022/08/30 06:10:06;;;;;;;18.98;12.05;;;;;;;-145.69;100.00;71277.03;5078692;28;20653;-76
2022/08/30 06:12:32;;;;;;;19.48;12.25;;;;;;;-145.69;100.00;71259.13;5078872;28;20287;-76
2022/08/30 06:15:00;;;;;;;21.25;13.10;;;;;;;-145.69;100.00;71247.19;5075853;28;20438;-76
2022/08/30 06:17:27;;;;;;;18.58;11.20;;;;;;;-145.69;100.00;71231.28;5075509;28;20205;-76
2022/08/30 06:19:53;;;;;;;19.83;11.68;;;;;;;-145.69;100.00;71221.31;5075668;28;20203;-75
2022/08/30 06:22:20;;;;;;;17.85;11.10;;;;;;;-145.69;100.00;71217.34;5075548;28;20199;-75
2022/08/30 06:24:46;;;;;;;17.45;10.70;;;;;;;-145.69;100.00;71199.44;5075374;28;20199;-75
2022/08/30 06:27:14;;;;;;;14.60;10.50;;;;;;;-145.69;100.00;71183.50;5075585;28;20199;-75
2022/08/30 06:29:40;;;;;;;20.63;9.75;;;;;;;-145.69;100.00;71167.59;5075433;28;20239;-75
2022/08/30 06:32:08;;;;;;;13.95;9.40;;;;;;;-145.69;100.00;71151.69;5074917;28;20228;-75
2022/08/30 06:34:35;;;;;;;13.35;9.43;;;;;;;-145.69;100.00;71131.78;5075474;28;20207;-75
2022/08/30 06:37:01;;;;;;;12.77;9.15;;;;;;;-145.69;100.00;71119.84;5074836;28;20199;-77
2022/08/30 06:39:27;;;;;;;14.45;8.68;;;;;;;-145.69;100.00;71095.97;5057386;28;20203;-76
2022/08/30 06:41:54;;;;;;;13.43;8.25;;;;;;;-145.69;100.00;71068.13;5055142;28;20206;-76
2022/08/30 06:44:21;;;;;;;12.52;8.13;;;;;;;-145.69;100.00;71038.25;5073449;28;20196;-75
2022/08/30 06:46:47;;;;;;;10.13;7.47;;;;;;;-145.69;100.00;71004.44;5075178;28;20199;-76
2022/08/30 06:49:16;;;;;;;10.98;6.97;;;;;;;-145.69;100.00;70966.63;5074554;28;20234;-75
2022/08/30 06:51:42;;;;;;;11.57;7.80;;;;;;;-145.69;100.00;70930.81;5074849;28;20254;-77
2022/08/30 06:54:10;;;;;;;10.32;7.15;;;;;;;-145.69;100.00;70889.03;5074778;28;20207;-77
2022/08/30 06:56:37;;;;;;;10.80;6.57;;;;;;;-145.69;100.00;70861.19;5074775;28;20195;-76
2022/08/30 06:59:03;;;;;;;10.23;6.25;;;;;;;-145.69;100.00;70835.31;5074359;28;20201;-75
2022/08/30 07:01:30;;;;;;;10.38;5.60;;;;;;;-145.69;100.00;70801.50;5074931;28;20203;-75
2022/08/30 07:03:58;;;;;;;7.18;5.07;;;;;;;-145.69;100.00;70763.69;5074667;28;20194;-75
2022/08/30 07:06:27;;;;;;;6.90;5.20;;;;;;;-145.69;100.00;70713.97;5074405;28;20203;-75
2022/08/30 07:08:54;;;;;;;6.35;4.90;;;;;;;-145.69;100.00;70682.13;5074422;28;20198;-75
2022/08/30 07:11:28;;;;;;;8.95;4.65;;;;;;;-145.69;100.00;70656.25;5074702;28;20226;-76
2022/08/30 07:13:55;;;;;;;6.03;4.72;;;;;;;-145.69;100.00;70636.38;5074595;28;20209;-75
2022/08/30 07:16:21;;;;;;;10.15;5.07;;;;;;;-145.69;100.00;70630.41;5073951;28;20671;-75
2022/08/30 07:18:50;;;;;;;9.75;5.20;;;;;;;-145.69;96.30;70618.47;5074364;28;20199;-76
2022/08/30 07:21:20;;;;;;;12.10;4.97;;;;;;;-145.69;97.38;70618.47;5074522;28;20264;-76
2022/08/30 07:23:49;;;;;;;8.20;4.80;;;;;;;-145.69;97.81;70622.44;5074487;28;20203;-76
2022/08/30 07:26:18;;;;;;;7.80;4.82;;;;;;;-145.69;96.53;70630.41;5070593;28;20226;-74
2022/08/30 07:28:45;;;;;;;5.53;4.25;;;;;;;-145.69;93.84;70624.44;5073531;28;20298;-75
2022/08/30 07:31:15;;;;;;;5.85;4.38;;;;;;;-145.69;94.54;70614.47;5073953;28;20226;-75
2022/08/30 07:33:42;;;;;;;7.05;4.10;;;;;;;-145.69;94.11;70608.53;5074333;28;20205;-77
2022/08/30 07:36:14;;;;;;;6.28;3.92;;;;;;;-145.69;93.85;70592.59;5074106;28;20202;-76
2022/08/30 07:38:40;;;;;;;8.38;4.55;;;;;;;-145.69;93.31;70570.72;5074183;28;20280;-76
2022/08/30 07:41:18;;;;;;;5.72;4.45;;;;;;;-145.69;89.82;70578.69;5074070;28;20205;-77
2022/08/30 07:43:45;;;;;;;8.45;4.60;;;;;;;-145.69;88.88;70560.78;5073755;28;20599;-76
2022/08/30 07:46:12;;;;;;;9.68;4.30;;;;;;;-145.69;88.21;70558.78;5074238;28;20206;-78
2022/08/30 07:48:42;;;;;;;7.85;4.63;;;;;;;-145.69;89.62;70544.84;5073788;28;20231;-76
2022/08/30 07:51:11;;;;;;;8.43;4.20;;;;;;;-145.69;90.00;70526.94;5071071;28;20219;-75
2022/08/30 07:53:37;;;;;;;6.28;3.90;;;;;;;-145.69;86.09;70519.00;5066655;28;20277;-75
2022/08/30 07:56:04;;;;;;;10.18;4.38;;;;;;;-145.69;89.06;70515.00;5072914;28;20793;-75
2022/08/30 07:58:32;;;;;;;6.40;3.97;;;;;;;-145.69;88.48;70507.06;5073527;28;20260;-75
2022/08/30 08:00:59;;;;;;;8.02;4.32;;;;;;;-145.69;86.17;70499.09;5073549;28;20202;-76
2022/08/30 08:03:25;;;;;;;6.22;4.20;;;;;;;-145.69;87.73;70477.22;5073645;28;20214;-74
2022/08/30 08:05:52;;;;;;;12.50;3.95;;;;;;;-145.69;84.43;70485.16;5072963;28;20195;-76
2022/08/30 08:08:21;;;;;;;10.50;4.15;;;;;;;-145.69;82.16;70483.19;5073274;28;20665;-76
2022/08/30 08:10:48;;;;;;;9.93;4.00;;;;;;;-145.69;84.02;70469.25;5073099;28;20195;-75
2022/08/30 08:13:15;;;;;;;6.97;4.25;;;;;;;-145.69;82.14;70467.28;5073644;28;20570;-75
2022/08/30 08:15:45;;;;;;;6.03;3.88;;;;;;;-145.69;82.89;70463.28;5073453;28;20202;-76
2022/08/30 08:18:12;;;;;;;6.55;4.03;;;;;;;-145.69;79.37;70447.38;5073223;28;20211;-76
2022/08/30 08:20:38;;;;;;;7.13;3.85;;;;;;;-145.69;80.81;70443.41;5073167;28;20561;-76
2022/08/30 08:23:05;;;;;;;5.57;3.42;;;;;;;-145.69;79.31;70443.41;5073661;28;20198;-75
2022/08/30 08:25:32;;;;;;;6.82;3.85;;;;;;;-145.69;82.58;70451.34;5073042;28;20589;-75
2022/08/30 08:27:58;;;;;;;4.97;3.95;;;;;;;-145.69;73.09;70453.34;5073057;28;20609;-75
2022/08/30 08:30:26;;;;;;;5.72;3.67;;;;;;;-145.69;77.44;70431.47;5073039;28;20545;-75
2022/08/30 08:32:57;;;;;;;6.88;3.97;;;;;;;-145.69;81.80;70411.56;5072445;28;20226;-75
2022/08/30 08:35:26;;;;;;;8.85;4.50;;;;;;;-145.69;74.24;70407.59;5052856;28;20202;-75
2022/08/30 08:37:52;;;;;;;5.70;3.78;;;;;;;-145.69;76.38;70379.72;5051299;28;20435;-75
2022/08/30 08:40:19;;;;;;;6.03;3.60;;;;;;;-145.69;76.57;70363.81;5052739;28;20199;-76
2022/08/30 08:43:01;;;;;;;8.05;4.18;;;;;;;-145.69;72.56;70365.81;5052990;28;20211;-76
2022/08/30 08:45:42;;;;;;;15.93;6.05;;;;;;;-145.69;73.54;70355.88;5053094;28;20199;-75
2022/08/30 08:48:26;;;;;;;4.55;3.55;;;;;;;-145.69;71.41;70343.94;5055659;28;20206;-75
2022/08/30 08:53:37;;;;;;;4.68;3.60;;;;;;;-145.69;71.89;70326.03;5064188;28;20689;-74
2022/08/30 08:56:11;;;;;;;4.20;3.03;;;;;;;-145.69;69.46;70332.00;5052728;28;20245;-75
2022/08/30 08:58:43;;;;;;;6.47;3.40;;;;;;;-145.69;68.57;70326.03;5062566;28;20256;-75
2022/08/30 09:01:11;;;;;;;6.22;3.58;;;;;;;-145.69;68.32;70312.09;5072786;28;20206;-75
2022/08/30 09:03:39;;;;;;;4.35;3.17;;;;;;;-145.69;67.14;70320.06;5072706;28;20198;-75
2022/08/30 09:06:22;;;;;;;7.65;3.47;;;;;;;-145.69;65.38;70333.97;5072850;28;20226;-75
2022/08/30 09:08:49;;;;;;;6.22;3.30;;;;;;;-145.69;63.57;70328.00;5072439;28;20260;-75
2022/08/30 09:11:22;;;;;;;7.97;3.35;;;;;;;-145.69;61.27;70312.09;5072288;28;20206;-75
2022/08/30 09:13:49;;;;;;;10.05;3.40;;;;;;;-145.69;63.02;70292.19;5072792;28;20222;-75
2022/08/30 09:16:47;;;;;;;4.95;3.05;;;;;;;-145.69;62.54;70280.28;5072855;28;20264;-75
2022/08/30 09:19:40;;;;;;;4.68;3.33;;;;;;;-145.69;58.66;70288.22;5072540;28;20199;-76
2022/08/30 09:22:25;;;;;;;5.20;3.15;;;;;;;-145.69;62.09;70306.13;5072695;28;20209;-75
2022/08/30 09:24:54;;;;;;;8.00;2.85;;;;;;;-145.69;61.81;70288.22;5072288;28;20568;-75
2022/08/30 09:27:25;;;;;;;6.22;3.05;;;;;;;-145.69;63.13;70290.22;5072747;28;20240;-75
2022/08/30 09:29:54;;;;;;;5.20;3.10;;;;;;;-145.69;61.21;70296.19;5072510;28;20768;-75
2022/08/30 09:32:27;;;;;;;4.55;2.97;;;;;;;-145.69;61.83;70288.22;5072360;28;20256;-75
2022/08/30 09:34:55;;;;;;;4.05;2.63;;;;;;;-145.69;59.77;70264.34;5072761;28;20205;-75
2022/08/30 09:37:30;;;;;;;2.97;2.67;;;;;;;-145.69;61.46;70254.41;5072538;28;20190;-76
2022/08/30 09:39:56;;;;;;;3.75;2.58;;;;;;;-145.69;55.27;70220.59;5072402;28;20203;-76
2022/08/30 09:42:27;;;;;;;4.47;2.75;;;;;;;-145.69;56.20;70230.53;5072362;28;20199;-77
2022/08/30 09:45:09;;;;;;;4.45;2.97;;;;;;;-145.69;60.41;70216.63;5071915;28;20203;-76
2022/08/30 09:47:37;;;;;;;3.97;2.97;;;;;;;-145.69;57.87;70210.66;5072427;28;20645;-76
2022/08/30 09:50:07;;;;;;;5.00;3.22;;;;;;;-145.69;58.70;70232.53;5073159;28;20231;-76
2022/08/30 09:52:47;;;;;;;5.32;2.47;;;;;;;-145.69;62.36;70202.69;5075632;28;20222;-76
2022/08/30 09:55:26;;;;;;;4.68;3.10;;;;;;;-145.69;55.98;70200.69;5075759;28;20560;-76
2022/08/30 09:58:01;;;;;;;6.68;3.20;;;;;;;-145.69;57.23;70192.75;5076028;28;20206;-75
2022/08/30 10:00:33;;;;;;;5.05;3.08;;;;;;;-145.69;57.02;70117.16;5076085;28;20248;-76
2022/08/30 10:03:13;;;;;;;6.38;2.92;;;;;;;-145.69;53.30;70093.28;5075063;28;20233;-76
2022/08/30 10:05:49;;;;;;;3.63;2.92;;;;;;;-145.69;51.35;70109.19;5075893;28;20252;-76
2022/08/30 10:08:22;;;;;;;5.63;3.00;;;;;;;-145.69;51.50;70103.22;5075695;28;20195;-75
2022/08/30 10:10:52;;;;;;;3.85;2.85;;;;;;;-145.69;52.92;70115.16;5075988;28;20608;-76
2022/08/30 10:13:38;;;;;;;5.20;3.08;;;;;;;-145.69;50.58;70125.09;5075479;28;20233;-76
2022/08/30 10:16:14;;;;;;;4.05;2.80;;;;;;;-145.69;51.83;70127.09;5075630;28;20195;-76
2022/08/30 10:18:51;;;;;;;5.25;2.90;;;;;;;-145.69;52.36;70093.28;5075448;28;20595;-75
2022/08/30 10:21:26;;;;;;;5.05;3.00;;;;;;;-145.69;51.48;70049.50;5075099;28;20438;-76
2022/08/30 10:23:58;;;;;;;5.00;3.25;;;;;;;-145.69;51.99;70049.50;5075566;28;20198;-76
2022/08/30 10:26:32;;;;;;;3.85;2.65;;;;;;;-145.69;48.20;70031.63;5075369;28;20199;-76
2022/08/30 10:29:03;;;;;;;3.90;2.55;;;;;;;-145.69;49.62;69991.84;5075403;28;20572;-75
2022/08/30 10:31:37;;;;;;;5.43;2.97;;;;;;;-145.69;50.08;69983.88;5075550;28;20199;-76
2022/08/30 10:34:10;;;;;;;4.25;2.85;;;;;;;-145.69;47.44;69969.94;5075397;28;20202;-75
2022/08/30 10:36:44;;;;;;;4.32;2.75;;;;;;;-145.69;46.25;69962.00;5075326;28;20203;-75
2022/08/30 10:39:18;;;;;;;5.28;2.53;;;;;;;-145.69;46.02;69908.28;5075075;28;20593;-75
2022/08/30 10:41:49;;;;;;;6.00;3.10;;;;;;;-145.69;47.30;70001.78;5066784;28;20200;-75
2022/08/30 10:44:23;;;;;;;6.13;2.80;;;;;;;-145.69;46.12;69977.91;5064767;28;20195;-76
2022/08/30 10:47:02;;;;;;;4.80;2.58;;;;;;;-145.69;48.23;69920.22;5075153;28;20617;-75
2022/08/30 10:49:32;;;;;;;6.18;2.78;;;;;;;-145.69;43.66;69942.09;5074614;28;20234;-75
2022/08/30 10:52:13;;;;;;;3.75;2.72;;;;;;;-145.69;48.54;69930.16;5074657;28;20839;-75
2022/08/30 10:54:44;;;;;;;3.55;2.42;;;;;;;-145.69;47.84;70017.69;5074908;28;20201;-75
2022/08/30 10:57:11;;;;;;;5.72;3.05;;;;;;;-145.69;46.66;69963.97;5074331;28;20457;-75
2022/08/30 10:59:44;;;;;;;6.65;2.60;;;;;;;-145.69;43.31;69918.22;5074767;28;20210;-75
2022/08/30 11:02:34;;;;;;;3.83;2.40;;;;;;;-145.69;42.12;69874.47;5074433;28;20272;-74
2022/08/30 11:05:24;;;;;;;3.90;2.55;;;;;;;-145.69;42.02;69882.44;5074799;28;20202;-75
2022/08/30 11:08:01;;;;;;;3.92;2.60;;;;;;;-145.69;45.72;69888.41;5074539;28;20653;-75
2022/08/30 11:10:47;;;;;;;4.07;2.70;;;;;;;-145.69;48.07;69912.25;5074526;28;20244;-75
2022/08/30 11:13:18;;;;;;;5.38;2.75;;;;;;;-145.69;43.63;69878.44;5074463;28;20223;-75
2022/08/30 11:16:00;;;;;;;5.93;2.92;;;;;;;-145.69;41.57;69876.47;5074418;28;20238;-75